createdAt,value
2022-08-12T00:00:51.676Z,3.47
2022-08-12T00:03:37.178Z,3.22
2022-08-12T00:06:22.848Z,3.58
2022-08-12T00:09:08.589Z,3.70
2022-08-12T00:11:54.917Z,3.58
2022-08-12T00:14:41.171Z,3.17
2022-08-12T00:17:27.281Z,3.63
2022-08-12T00:20:12.413Z,3.53
2022-08-12T00:23:01.380Z,3.95
2022-08-12T00:26:23.079Z,3.88
2022-08-12T00:29:13.426Z,3.78
2022-08-12T00:32:00.291Z,3.83
2022-08-12T00:34:48.482Z,4.32
2022-08-12T00:37:35.893Z,3.90
2022-08-12T00:40:23.893Z,3.50
2022-08-12T00:42:51.415Z,3.85
2022-08-12T00:45:18.986Z,4.22
2022-08-12T00:47:46.624Z,4.00
2022-08-12T00:50:18.702Z,4.00
2022-08-12T00:52:51.126Z,4.20
2022-08-12T00:55:18.758Z,3.85
2022-08-12T00:57:48.944Z,4.28
2022-08-12T01:00:25.743Z,3.88
2022-08-12T01:02:58.684Z,3.75
2022-08-12T01:05:45.198Z,3.67
2022-08-12T01:08:30.820Z,3.90
2022-08-12T01:11:16.979Z,3.72
2022-08-12T01:13:48.789Z,4.07
2022-08-12T01:16:22.755Z,4.20
2022-08-12T01:18:54.335Z,4.50
2022-08-12T01:21:27.169Z,3.85
2022-08-12T01:24:29.600Z,4.00
2022-08-12T01:27:00.027Z,4.13
2022-08-12T01:29:32.594Z,4.10
2022-08-12T01:32:05.361Z,4.03
2022-08-12T01:34:37.584Z,4.53
2022-08-12T01:37:07.649Z,4.05
2022-08-12T01:40:35.755Z,4.03
2022-08-12T01:42:46.690Z,4.47
2022-08-12T01:45:14.289Z,4.60
2022-08-12T01:48:05.299Z,4.97
2022-08-12T01:51:40.762Z,5.10
2022-08-12T01:54:14.149Z,6.10
2022-08-12T01:56:52.284Z,6.50
2022-08-12T01:59:49.508Z,7.05
2022-08-12T02:02:39.994Z,6.30
2022-08-12T02:05:35.962Z,5.63
2022-08-12T02:08:53.147Z,6.22
2022-08-12T02:11:25.985Z,5.30
2022-08-12T02:13:58.587Z,4.95
2022-08-12T02:17:14.923Z,5.28
2022-08-12T02:20:04.761Z,5.30
2022-08-12T02:22:38.510Z,5.18
2022-08-12T02:25:18.925Z,5.63
2022-08-12T02:27:51.093Z,5.43
2022-08-12T02:30:23.587Z,5.18
2022-08-12T02:32:53.006Z,5.60
2022-08-12T02:35:22.960Z,5.97
2022-08-12T02:37:56.254Z,5.47
2022-08-12T02:40:26.803Z,5.55
2022-08-12T02:42:59.810Z,5.33
2022-08-12T02:46:09.296Z,5.20
2022-08-12T02:48:50.702Z,5.22
2022-08-12T02:51:39.098Z,5.88
2022-08-12T02:54:07.423Z,5.03
2022-08-12T02:56:50.589Z,5.50
2022-08-12T02:59:22.518Z,5.53
2022-08-12T03:01:54.967Z,5.90
2022-08-12T03:04:30.740Z,5.72
2022-08-12T03:07:28.837Z,6.03
2022-08-12T03:10:15.887Z,5.72
2022-08-12T03:12:48.895Z,5.47
2022-08-12T03:15:18.959Z,5.70
2022-08-12T03:18:24.832Z,5.50
2022-08-12T03:20:51.413Z,5.95
2022-08-12T03:23:30.401Z,5.78
2022-08-12T03:26:01.462Z,5.93
2022-08-12T03:28:48.770Z,6.05
2022-08-12T03:31:16.810Z,5.30
2022-08-12T03:34:01.344Z,5.68
2022-08-12T03:36:35.271Z,6.00
2022-08-12T03:39:35.575Z,5.97
2022-08-12T03:42:12.435Z,5.70
2022-08-12T03:45:29.082Z,6.40
2022-08-12T03:48:30.918Z,6.30
2022-08-12T03:51:17.239Z,6.28
2022-08-12T03:54:03.107Z,6.60
2022-08-12T03:56:51.262Z,6.13
2022-08-12T03:59:36.761Z,6.13
2022-08-12T04:02:03.766Z,7.30
2022-08-12T04:04:34.174Z,6.20
2022-08-12T04:07:03.558Z,6.23
2022-08-12T04:09:31.288Z,6.72
2022-08-12T04:12:16.617Z,6.43
2022-08-12T04:14:43.880Z,6.32
2022-08-12T04:17:12.274Z,6.47
2022-08-12T04:19:42.146Z,6.38
2022-08-12T04:22:09.893Z,6.70
2022-08-12T04:24:38.000Z,6.10
2022-08-12T04:27:11.237Z,6.63
2022-08-12T04:30:21.496Z,6.20
2022-08-12T04:32:26.517Z,6.80
2022-08-12T04:34:53.847Z,6.35
2022-08-12T04:37:20.665Z,6.47
2022-08-12T04:39:48.812Z,7.10
2022-08-12T04:42:18.075Z,6.15
2022-08-12T04:44:45.215Z,6.72
2022-08-12T04:47:14.239Z,6.43
2022-08-12T04:49:44.538Z,6.72
2022-08-12T04:52:12.182Z,6.90
2022-08-12T04:54:39.144Z,6.78
2022-08-12T04:57:09.344Z,6.93
2022-08-12T04:59:47.193Z,7.00
2022-08-12T05:02:21.770Z,7.22
2022-08-12T05:04:56.245Z,7.10
2022-08-12T05:07:27.774Z,6.60
2022-08-12T05:10:01.952Z,6.70
2022-08-12T05:12:37.512Z,7.07
2022-08-12T05:15:16.747Z,7.00
2022-08-12T05:17:48.579Z,6.78
2022-08-12T05:20:19.837Z,6.80
2022-08-12T05:22:46.903Z,6.43
2022-08-12T05:25:15.847Z,6.78
2022-08-12T05:27:55.454Z,6.80
2022-08-12T05:30:25.770Z,6.80
2022-08-12T05:32:54.695Z,6.95
2022-08-12T05:35:22.700Z,6.47
2022-08-12T05:38:13.851Z,6.68
2022-08-12T05:40:41.824Z,6.70
2022-08-12T05:43:11.410Z,6.65
2022-08-12T05:45:44.359Z,7.03
2022-08-12T05:48:12.217Z,6.93
2022-08-12T05:50:39.793Z,6.70
2022-08-12T05:53:07.224Z,6.25
2022-08-12T05:55:35.675Z,6.72
2022-08-12T05:58:04.857Z,6.55
2022-08-12T06:00:32.775Z,6.95
2022-08-12T06:03:02.843Z,6.80
2022-08-12T06:05:34.367Z,6.50
2022-08-12T06:08:18.964Z,7.10
2022-08-12T06:10:46.102Z,6.78
2022-08-12T06:13:15.103Z,6.47
2022-08-12T06:15:55.840Z,6.93
2022-08-12T06:18:27.751Z,6.43
2022-08-12T06:20:59.114Z,6.32
2022-08-12T06:23:29.614Z,6.45
2022-08-12T06:25:59.324Z,6.30
2022-08-12T06:28:26.276Z,6.80
2022-08-12T06:31:22.217Z,6.70
2022-08-12T06:33:55.776Z,6.43
2022-08-12T06:36:30.069Z,6.80
2022-08-12T06:39:01.862Z,6.85
2022-08-12T06:42:31.043Z,6.78
2022-08-12T06:44:36.270Z,6.22
2022-08-12T06:47:03.076Z,7.00
2022-08-12T06:49:35.702Z,7.00
2022-08-12T06:52:07.426Z,6.65
2022-08-12T06:54:35.387Z,7.00
2022-08-12T06:57:57.276Z,6.97
2022-08-12T06:59:51.906Z,7.03
2022-08-12T07:02:22.878Z,6.13
2022-08-12T07:04:50.143Z,7.35
2022-08-12T07:07:18.402Z,6.72
2022-08-12T07:10:01.328Z,6.47
2022-08-12T07:12:34.206Z,6.78
2022-08-12T07:15:01.873Z,7.35
2022-08-12T07:17:37.290Z,6.97
2022-08-12T07:20:20.127Z,6.70
2022-08-12T07:23:01.054Z,6.70
2022-08-12T07:25:31.053Z,7.38
2022-08-12T07:28:25.447Z,6.30
2022-08-12T07:30:54.569Z,7.38
2022-08-12T07:33:23.833Z,6.75
2022-08-12T07:35:53.878Z,6.93
2022-08-12T07:38:56.928Z,6.60
2022-08-12T07:41:29.854Z,6.75
2022-08-12T07:46:37.324Z,6.82
2022-08-12T07:49:11.657Z,7.20
2022-08-12T07:51:39.084Z,7.85
2022-08-12T07:54:09.881Z,7.60
2022-08-12T07:56:38.357Z,6.80
2022-08-12T07:59:05.939Z,6.85
2022-08-12T08:01:33.145Z,7.10
2022-08-12T08:04:19.459Z,7.40
2022-08-12T08:06:47.235Z,7.88
2022-08-12T08:09:16.367Z,7.65
2022-08-12T08:12:01.946Z,7.85
2022-08-12T08:14:29.494Z,7.40
2022-08-12T08:17:03.326Z,6.60
2022-08-12T08:19:33.608Z,7.03
2022-08-12T08:22:40.874Z,7.45
2022-08-12T08:25:36.630Z,7.80
2022-08-12T08:27:54.419Z,6.78
2022-08-12T08:30:23.649Z,8.60
2022-08-12T08:32:50.440Z,8.07
2022-08-12T08:35:17.226Z,8.80
2022-08-12T08:37:46.226Z,7.35
2022-08-12T08:40:36.170Z,7.25
2022-08-12T08:43:03.390Z,8.32
2022-08-12T08:45:30.567Z,8.10
2022-08-12T08:48:00.297Z,8.75
2022-08-12T08:50:27.534Z,8.90
2022-08-12T08:52:54.504Z,9.40
2022-08-12T08:55:33.376Z,8.82
2022-08-12T08:58:10.318Z,8.00
2022-08-12T09:00:39.000Z,7.78
2022-08-12T09:04:21.209Z,7.82
2022-08-12T09:06:02.972Z,7.32
2022-08-12T09:08:30.050Z,7.38
2022-08-12T09:10:59.908Z,6.30
2022-08-12T09:16:20.822Z,6.90
2022-08-12T09:18:52.488Z,7.88
2022-08-12T09:21:20.112Z,7.30
2022-08-12T09:24:00.751Z,5.13
2022-08-12T09:26:45.908Z,5.88
2022-08-12T09:30:08.877Z,5.03
2022-08-12T09:32:09.553Z,4.95
2022-08-12T09:34:42.463Z,4.70
2022-08-12T09:37:19.966Z,4.68
2022-08-12T09:40:00.473Z,4.28
2022-08-12T09:43:15.574Z,4.22
2022-08-12T09:46:11.357Z,4.13
2022-08-12T09:48:36.705Z,4.25
2022-08-12T09:51:16.919Z,4.40
2022-08-12T09:54:08.991Z,4.35
2022-08-12T09:57:03.119Z,4.18
2022-08-12T10:00:15.232Z,4.55
2022-08-12T10:02:45.681Z,4.22
2022-08-12T10:05:13.813Z,4.22
2022-08-12T10:07:44.807Z,4.07
2022-08-12T10:10:23.033Z,4.13
2022-08-12T10:13:13.703Z,4.20
2022-08-12T10:16:03.041Z,4.80
2022-08-12T10:18:35.359Z,3.83
2022-08-12T10:21:07.253Z,4.13
2022-08-12T10:23:39.858Z,4.18
2022-08-12T10:26:37.400Z,4.22
2022-08-12T10:30:37.106Z,3.67
2022-08-12T10:32:45.435Z,3.92
2022-08-12T10:35:09.486Z,3.70
2022-08-12T10:38:35.613Z,3.65
2022-08-12T10:40:32.568Z,3.78
2022-08-12T10:43:20.006Z,3.40
2022-08-12T10:45:49.601Z,3.80
2022-08-12T10:48:33.485Z,3.55
2022-08-12T10:52:02.698Z,3.65
2022-08-12T10:54:00.384Z,3.33
2022-08-12T10:56:34.515Z,3.58
2022-08-12T10:59:03.870Z,3.63
2022-08-12T11:04:18.336Z,3.60
2022-08-12T11:04:35.359Z,3.60
2022-08-12T11:08:34.698Z,3.20
2022-08-12T11:10:02.116Z,3.10
2022-08-12T11:12:58.353Z,3.47
2022-08-12T11:15:33.004Z,3.53
2022-08-12T11:18:11.935Z,3.65
2022-08-12T11:20:44.968Z,3.33
2022-08-12T11:23:25.787Z,3.55
2022-08-12T11:26:05.363Z,3.30
2022-08-12T11:28:37.428Z,3.10
2022-08-12T11:31:12.019Z,3.40
2022-08-12T11:34:05.101Z,3.17
2022-08-12T11:36:27.809Z,3.15
2022-08-12T11:38:57.992Z,3.38
2022-08-12T11:41:31.066Z,3.50
2022-08-12T11:44:29.105Z,3.38
2022-08-12T11:46:52.925Z,3.45
2022-08-12T11:49:32.437Z,3.40
2022-08-12T11:52:03.846Z,3.67
2022-08-12T11:54:31.882Z,3.53
2022-08-12T11:57:02.272Z,3.47
2022-08-12T12:02:23.309Z,3.30
2022-08-12T12:04:55.877Z,3.67
2022-08-12T12:08:39.053Z,3.40
2022-08-12T12:10:15.362Z,3.45
2022-08-12T12:12:49.541Z,3.70
2022-08-12T12:15:25.424Z,3.45
2022-08-12T12:18:05.179Z,3.28
2022-08-12T12:20:31.949Z,3.20
2022-08-12T12:22:58.663Z,3.33
2022-08-12T12:26:07.602Z,3.08
2022-08-12T12:28:36.569Z,3.47
2022-08-12T12:31:00.752Z,3.90
2022-08-12T12:33:46.230Z,3.65
2022-08-12T12:36:24.169Z,3.60
2022-08-12T12:38:56.043Z,3.38
2022-08-12T12:42:13.470Z,3.17
2022-08-12T12:44:13.238Z,3.45
2022-08-12T12:46:54.801Z,3.63
2022-08-12T12:49:26.111Z,3.45
2022-08-12T12:52:19.717Z,3.40
2022-08-12T12:54:52.561Z,3.50
2022-08-12T12:57:21.556Z,3.35
2022-08-12T13:00:16.648Z,3.25
2022-08-12T13:02:57.394Z,3.38
2022-08-12T13:05:43.435Z,3.38
2022-08-12T13:08:28.322Z,3.13
2022-08-12T13:11:05.039Z,3.30
2022-08-12T13:14:07.604Z,3.08
2022-08-12T13:16:26.631Z,3.03
2022-08-12T13:18:54.667Z,3.30
2022-08-12T13:24:02.602Z,3.13
2022-08-12T13:26:39.936Z,3.30
2022-08-12T13:29:11.618Z,3.50
2022-08-12T13:32:19.575Z,3.65
2022-08-12T13:34:33.621Z,3.25
2022-08-12T13:37:09.063Z,3.25
2022-08-12T13:39:37.359Z,3.55
2022-08-12T13:42:14.214Z,3.95
2022-08-12T13:44:41.864Z,3.50
2022-08-12T13:47:19.733Z,3.47
2022-08-12T13:49:55.511Z,3.55
2022-08-12T13:52:23.593Z,3.35
2022-08-12T13:54:55.145Z,3.45
2022-08-12T13:57:26.374Z,3.58
2022-08-12T13:59:55.498Z,3.47
2022-08-12T14:02:23.482Z,3.63
2022-08-12T14:04:56.717Z,3.28
2022-08-12T14:07:26.015Z,3.38
2022-08-12T14:10:12.047Z,3.38
2022-08-12T14:12:54.531Z,3.50
2022-08-12T14:15:35.108Z,3.47
2022-08-12T14:18:15.830Z,3.70
2022-08-12T14:20:48.439Z,3.40
2022-08-12T14:24:04.342Z,3.33
2022-08-12T14:26:06.785Z,3.50
2022-08-12T14:28:40.117Z,3.65
2022-08-12T14:31:18.127Z,3.60
2022-08-12T14:33:49.042Z,3.60
2022-08-12T14:36:22.791Z,4.00
2022-08-12T14:38:52.473Z,4.00
2022-08-12T14:41:23.794Z,3.88
2022-08-12T14:44:58.062Z,4.00
2022-08-12T14:46:55.710Z,3.80
2022-08-12T14:50:01.341Z,3.88
2022-08-12T14:52:55.868Z,3.88
2022-08-12T14:57:57.079Z,3.90
2022-08-12T15:00:50.711Z,3.80
2022-08-12T15:03:20.495Z,4.00
2022-08-12T15:06:05.435Z,3.93
2022-08-12T15:08:38.600Z,3.75
2022-08-12T15:11:13.502Z,4.05
2022-08-12T15:13:46.018Z,4.00
2022-08-12T15:16:13.678Z,4.00
2022-08-12T15:18:55.056Z,3.63
2022-08-12T15:21:24.465Z,3.83
2022-08-12T15:23:55.645Z,4.10
2022-08-12T15:26:28.549Z,4.15
2022-08-12T15:28:56.812Z,4.22
2022-08-12T15:31:28.351Z,3.80
2022-08-12T15:34:11.365Z,3.80
2022-08-12T15:36:54.980Z,3.97
2022-08-12T15:39:22.526Z,3.72
2022-08-12T15:41:55.313Z,3.70
2022-08-12T15:44:41.679Z,3.80
2022-08-12T15:47:10.176Z,3.65
2022-08-12T15:49:54.357Z,3.30
2022-08-12T15:52:27.416Z,3.38
2022-08-12T15:54:58.718Z,3.67
2022-08-12T15:57:28.231Z,3.30
2022-08-12T16:00:07.408Z,3.72
2022-08-12T16:02:50.055Z,4.10
2022-08-12T16:06:11.987Z,3.38
2022-08-12T16:08:15.185Z,3.50
2022-08-12T16:10:45.463Z,3.28
2022-08-12T16:13:25.100Z,3.53
2022-08-12T16:16:03.878Z,3.40
2022-08-12T16:18:35.671Z,3.22
2022-08-12T16:21:09.124Z,3.25
2022-08-12T16:23:52.144Z,3.22
2022-08-12T16:26:32.232Z,3.00
2022-08-12T16:28:59.422Z,3.55
2022-08-12T16:31:42.739Z,3.13
2022-08-12T16:34:25.825Z,3.30
2022-08-12T16:37:03.168Z,3.55
2022-08-12T16:39:57.322Z,3.60
2022-08-12T16:42:22.461Z,2.95
2022-08-12T16:44:49.882Z,3.00
2022-08-12T16:47:18.714Z,3.25
2022-08-12T16:49:46.758Z,2.97
2022-08-12T16:52:16.331Z,3.40
2022-08-12T16:54:44.243Z,3.17
2022-08-12T16:57:13.147Z,2.97
2022-08-12T16:59:53.300Z,3.08
2022-08-12T17:02:33.466Z,3.05
2022-08-12T17:05:04.676Z,3.20
2022-08-12T17:07:43.759Z,3.03
2022-08-12T17:10:18.594Z,3.03
2022-08-12T17:13:09.824Z,2.85
2022-08-12T17:15:57.677Z,2.80
2022-08-12T17:18:43.461Z,2.85
2022-08-12T17:21:19.962Z,3.20
2022-08-12T17:23:53.509Z,2.70
2022-08-12T17:26:28.261Z,2.88
2022-08-12T17:29:00.938Z,3.05
2022-08-12T17:32:00.206Z,3.00
2022-08-12T17:34:38.386Z,3.40
2022-08-12T17:37:07.248Z,2.90
2022-08-12T17:40:06.825Z,2.83
2022-08-12T17:42:34.695Z,3.13
2022-08-12T17:48:01.668Z,3.20
2022-08-12T17:50:34.104Z,2.60
2022-08-12T17:53:03.244Z,3.08
2022-08-12T17:55:43.741Z,3.00
2022-08-12T17:58:35.701Z,3.30
2022-08-12T18:01:06.170Z,3.17
2022-08-12T18:03:58.065Z,2.90
2022-08-12T18:06:28.085Z,3.28
2022-08-12T18:08:58.684Z,3.22
2022-08-12T18:12:04.110Z,2.90
2022-08-12T18:14:32.541Z,3.20
2022-08-12T18:17:01.751Z,3.20
2022-08-12T18:20:03.939Z,3.15
2022-08-12T18:22:22.189Z,3.47
2022-08-12T18:25:04.031Z,3.50
2022-08-12T18:27:44.136Z,2.88
2022-08-12T18:30:29.477Z,3.40
2022-08-12T18:33:04.979Z,2.95
2022-08-12T18:35:42.323Z,3.25
2022-08-12T18:38:22.158Z,3.25
2022-08-12T18:41:09.502Z,3.20
2022-08-12T18:43:57.396Z,3.25
2022-08-12T18:46:33.298Z,3.30
2022-08-12T18:49:17.930Z,3.10
2022-08-12T18:51:55.486Z,3.00
2022-08-12T18:54:53.405Z,3.25
2022-08-12T18:58:06.151Z,3.20
2022-08-12T19:00:22.193Z,3.28
2022-08-12T19:02:51.038Z,3.20
2022-08-12T19:05:20.927Z,3.03
2022-08-12T19:08:01.151Z,3.10
2022-08-12T19:13:21.180Z,3.10
2022-08-12T19:15:53.801Z,3.45
2022-08-12T19:18:24.406Z,3.13
2022-08-12T19:20:51.260Z,3.53
2022-08-12T19:23:20.898Z,3.20
2022-08-12T19:25:59.768Z,3.38
2022-08-12T19:28:34.538Z,3.35
2022-08-12T19:31:56.328Z,3.47
2022-08-12T19:35:53.862Z,3.42
2022-08-12T19:38:02.403Z,3.42
2022-08-12T19:43:20.840Z,3.20
2022-08-12T19:45:57.214Z,3.10
2022-08-12T19:48:33.126Z,3.20
2022-08-12T19:51:09.269Z,3.13
2022-08-12T19:53:57.257Z,3.60
2022-08-12T19:56:28.676Z,3.50
2022-08-12T19:59:21.654Z,3.50
2022-08-12T20:02:03.124Z,3.53
2022-08-12T20:04:39.690Z,3.65
2022-08-12T20:07:23.139Z,3.50
2022-08-12T20:09:53.778Z,3.80
2022-08-12T20:12:32.586Z,3.38
2022-08-12T20:15:05.296Z,3.35
2022-08-12T20:17:36.454Z,3.65
2022-08-12T20:20:21.265Z,3.70
2022-08-12T20:22:58.115Z,3.58
2022-08-12T20:25:52.774Z,3.85
2022-08-12T20:28:15.401Z,3.47
2022-08-12T20:30:59.269Z,3.83
2022-08-12T20:33:32.390Z,3.92
2022-08-12T20:36:41.645Z,4.00
2022-08-12T20:39:37.507Z,3.80
2022-08-12T20:42:07.233Z,3.88
2022-08-12T20:44:40.341Z,3.97
2022-08-12T20:47:18.394Z,3.95
2022-08-12T20:50:00.076Z,4.05
2022-08-12T20:52:34.025Z,4.00
2022-08-12T20:55:04.271Z,4.45
2022-08-12T20:57:38.395Z,3.83
2022-08-12T21:00:28.061Z,4.03
2022-08-12T21:03:15.348Z,4.25
2022-08-12T21:06:13.270Z,3.90
2022-08-12T21:08:41.502Z,4.43
2022-08-12T21:11:10.219Z,3.80
2022-08-12T21:13:39.257Z,4.18
2022-08-12T21:16:09.909Z,4.35
2022-08-12T21:18:38.132Z,4.50
2022-08-12T21:21:06.734Z,4.32
2022-08-12T21:23:50.371Z,4.47
2022-08-12T21:26:18.000Z,4.32
2022-08-12T21:28:58.408Z,4.18
2022-08-12T21:32:36.385Z,4.50
2022-08-12T21:34:22.110Z,4.90
2022-08-12T21:36:53.167Z,3.92
2022-08-12T21:39:35.661Z,4.40
2022-08-12T21:42:06.942Z,4.55
2022-08-12T21:45:46.239Z,4.38
2022-08-12T21:47:23.655Z,4.28
2022-08-12T21:50:04.019Z,4.30
2022-08-12T21:52:40.852Z,4.18
2022-08-12T21:55:17.830Z,4.70
2022-08-12T21:57:53.991Z,4.40
2022-08-12T22:00:32.096Z,4.60
2022-08-12T22:04:01.254Z,4.90
2022-08-12T22:06:31.500Z,4.70
2022-08-12T22:09:11.227Z,5.20
2022-08-12T22:11:56.187Z,5.20
2022-08-12T22:14:28.092Z,5.63
2022-08-12T22:16:57.020Z,5.35
2022-08-12T22:19:23.989Z,5.13
2022-08-12T22:21:54.553Z,5.30
2022-08-12T22:24:27.248Z,5.20
2022-08-12T22:27:28.133Z,5.30
2022-08-12T22:30:16.859Z,5.45
2022-08-12T22:32:49.771Z,5.40
2022-08-12T22:38:23.753Z,5.38
2022-08-12T22:41:01.349Z,5.47
2022-08-12T22:44:00.017Z,5.75
2022-08-12T22:46:52.591Z,5.40
2022-08-12T22:49:22.731Z,5.80
2022-08-12T22:52:08.343Z,5.65
2022-08-12T22:54:37.576Z,6.38
2022-08-12T22:57:13.913Z,6.60
2022-08-12T22:59:55.232Z,7.68
2022-08-12T23:02:28.602Z,6.28
2022-08-12T23:04:57.051Z,6.40
2022-08-12T23:07:24.341Z,6.07
2022-08-12T23:09:51.654Z,6.03
2022-08-12T23:12:46.416Z,6.55
2022-08-12T23:15:14.497Z,6.50
2022-08-12T23:17:41.876Z,7.25
2022-08-12T23:20:11.109Z,6.72
2022-08-12T23:22:38.650Z,7.07
2022-08-12T23:25:18.975Z,8.10
2022-08-12T23:28:29.850Z,7.00
2022-08-12T23:30:58.718Z,7.10
2022-08-12T23:34:00.739Z,6.90
2022-08-12T23:36:39.223Z,7.30
2022-08-12T23:40:13.498Z,7.30
2022-08-12T23:42:17.021Z,6.75
2022-08-12T23:44:42.910Z,6.68
2022-08-12T23:47:12.549Z,6.63
2022-08-12T23:49:58.103Z,7.38
2022-08-12T23:52:33.951Z,6.60
2022-08-12T23:55:24.784Z,7.38
2022-08-12T23:58:17.933Z,6.60
